Time;durP1;ratioP1;P1;durP2;ratioP2;P2;SDS_P1;SDS_P2;PMS_P1;PMS_P2;Temp;Humidity;BMP_temperature;BMP_pressure;BME280_temperature;BME280_humidity;BME280_pressure;Samples;Min_cycle;Max_cycle;Signal;HPM_P1;HPM_P2
2021/03/13 00:01:15;;;;;;;3.30;1.33;;;5.20;90.60;;;;;;4989218;28;20061;-76
2021/03/13 00:03:43;;;;;;;3.72;1.50;;;5.20;90.70;;;;;;5002834;28;20042;-75
2021/03/13 00:06:18;;;;;;;2.80;1.30;;;5.30;90.80;;;;;;5009651;28;20337;-75
2021/03/13 00:08:49;;;;;;;4.43;1.10;;;5.30;90.40;;;;;;5011781;28;20057;-74
2021/03/13 00:11:16;;;;;;;4.55;1.25;;;5.40;90.00;;;;;;5002037;28;20157;-74
2021/03/13 00:13:43;;;;;;;3.63;1.15;;;5.40;90.40;;;;;;5001796;28;20054;-75
2021/03/13 00:16:10;;;;;;;1.40;0.90;;;5.40;91.10;;;;;;5000380;28;20361;-75
2021/03/13 00:18:37;;;;;;;4.35;1.50;;;5.40;90.40;;;;;;4999605;28;20228;-75
2021/03/13 00:21:06;;;;;;;1.98;0.90;;;5.50;90.00;;;;;;5002494;28;20121;-76
2021/03/13 00:23:33;;;;;;;3.50;1.75;;;5.50;89.70;;;;;;4986239;28;20057;-75
2021/03/13 00:26:00;;;;;;;1.80;1.02;;;5.60;89.20;;;;;;5002312;28;20106;-75
2021/03/13 00:28:29;;;;;;;2.95;1.02;;;5.60;89.90;;;;;;5003528;28;20361;-74
2021/03/13 00:30:56;;;;;;;2.45;1.30;;;5.60;89.30;;;;;;5002434;28;20056;-74
2021/03/13 00:33:25;;;;;;;2.65;1.60;;;5.70;89.30;;;;;;5010466;28;20058;-74
2021/03/13 00:35:53;;;;;;;1.52;0.85;;;5.70;89.20;;;;;;4998140;28;20088;-75
2021/03/13 00:38:23;;;;;;;4.82;1.35;;;5.70;89.40;;;;;;4998836;28;20080;-78
2021/03/13 00:40:52;;;;;;;2.03;0.93;;;5.70;88.60;;;;;;5002644;28;20053;-75
2021/03/13 00:43:19;;;;;;;1.58;1.08;;;5.70;88.90;;;;;;4996424;28;20062;-76
2021/03/13 00:45:47;;;;;;;4.22;0.95;;;5.70;89.10;;;;;;5003083;28;20050;-77
2021/03/13 00:48:15;;;;;;;1.48;0.70;;;5.80;89.30;;;;;;5012972;28;20679;-77
2021/03/13 00:50:44;;;;;;;1.55;0.50;;;5.80;89.00;;;;;;4986032;28;20244;-77
2021/03/13 00:53:12;;;;;;;3.50;1.08;;;5.80;88.70;;;;;;5003987;28;20088;-75
2021/03/13 00:55:42;;;;;;;1.80;0.77;;;5.80;88.50;;;;;;5015437;28;20064;-74
2021/03/13 00:58:14;;;;;;;1.45;0.70;;;5.80;88.80;;;;;;4999356;28;20046;-77
2021/03/13 01:00:55;;;;;;;3.40;1.08;;;5.90;88.40;;;;;;4977280;28;20168;-74
2021/03/13 01:03:26;;;;;;;4.50;0.80;;;5.90;88.10;;;;;;4998406;28;20060;-76
2021/03/13 01:05:53;;;;;;;1.55;0.70;;;5.90;88.20;;;;;;4999369;28;20234;-75
2021/03/13 01:08:23;;;;;;;1.40;0.50;;;5.90;88.60;;;;;;4981121;28;20077;-74
2021/03/13 01:11:11;;;;;;;1.73;0.77;;;5.90;88.20;;;;;;5011724;28;20074;-76
2021/03/13 01:13:44;;;;;;;4.32;0.88;;;5.90;88.30;;;;;;4992595;28;20137;-73
2021/03/13 01:16:12;;;;;;;4.20;1.23;;;5.90;89.00;;;;;;4992721;28;20045;-74
2021/03/13 01:18:40;;;;;;;2.50;0.60;;;6.00;88.60;;;;;;5000217;28;20065;-74
2021/03/13 01:21:11;;;;;;;0.43;0.38;;;6.00;88.10;;;;;;5001963;28;20340;-74
2021/03/13 01:23:44;;;;;;;2.35;0.82;;;6.00;88.30;;;;;;5015827;28;20054;-75
2021/03/13 01:26:17;;;;;;;1.83;0.63;;;6.10;88.20;;;;;;4987774;28;20612;-74
2021/03/13 01:28:44;;;;;;;1.15;0.47;;;6.00;89.30;;;;;;4997339;28;20290;-74
2021/03/13 01:31:28;;;;;;;2.83;0.80;;;5.90;90.10;;;;;;5013025;28;20642;-77
2021/03/13 01:33:55;;;;;;;5.10;0.88;;;5.90;90.30;;;;;;4997277;28;20058;-75
2021/03/13 01:36:22;;;;;;;0.95;0.50;;;5.90;91.00;;;;;;4999962;28;20062;-74
2021/03/13 01:38:49;;;;;;;3.03;0.47;;;5.90;91.00;;;;;;5011671;28;20094;-76
2021/03/13 01:41:17;;;;;;;2.40;0.70;;;5.90;91.40;;;;;;4997697;28;20640;-75
2021/03/13 01:43:44;;;;;;;1.98;0.95;;;5.90;90.80;;;;;;5001776;28;20253;-74
2021/03/13 01:46:13;;;;;;;2.17;0.55;;;5.90;90.20;;;;;;4991838;28;20109;-75
2021/03/13 01:48:44;;;;;;;1.85;0.40;;;5.90;90.80;;;;;;4999725;28;21338;-76
2021/03/13 01:51:15;;;;;;;1.55;0.57;;;6.00;91.10;;;;;;5017793;28;20861;-74
2021/03/13 01:53:44;;;;;;;1.65;0.50;;;6.00;90.30;;;;;;4999412;28;20330;-74
2021/03/13 01:56:12;;;;;;;1.98;0.47;;;6.10;89.60;;;;;;4980731;28;20328;-74
2021/03/13 01:58:42;;;;;;;1.20;0.40;;;6.10;89.20;;;;;;4996604;28;20057;-75
2021/03/13 02:01:13;;;;;;;0.52;0.30;;;6.20;88.50;;;;;;4993206;28;20046;-75
2021/03/13 02:03:42;;;;;;;0.63;0.40;;;6.20;88.60;;;;;;4999571;28;20037;-76
2021/03/13 02:06:11;;;;;;;2.55;1.33;;;6.20;88.20;;;;;;5012311;28;20046;-74
2021/03/13 02:08:47;;;;;;;0.93;0.50;;;6.20;88.10;;;;;;4992211;28;20053;-73
2021/03/13 02:11:22;;;;;;;0.73;0.45;;;6.30;87.70;;;;;;4997812;28;20050;-76
2021/03/13 02:14:01;;;;;;;2.22;0.40;;;6.30;88.30;;;;;;4999700;28;20046;-74
2021/03/13 02:16:34;;;;;;;1.65;0.75;;;6.40;87.20;;;;;;5003250;28;20054;-74
2021/03/13 02:19:23;;;;;;;1.38;0.80;;;6.40;86.50;;;;;;4993316;28;20069;-77
2021/03/13 02:21:56;;;;;;;4.47;0.47;;;6.40;86.50;;;;;;4987617;28;20065;-76
2021/03/13 02:24:53;;;;;;;0.68;0.40;;;6.50;85.70;;;;;;5024210;28;20056;-75
2021/03/13 02:27:25;;;;;;;0.88;0.50;;;6.50;86.20;;;;;;5014280;28;20233;-76
2021/03/13 02:30:07;;;;;;;0.70;0.47;;;6.50;85.50;;;;;;5018695;28;20050;-75
2021/03/13 02:33:10;;;;;;;3.00;0.70;;;6.60;85.50;;;;;;5003756;28;20050;-76
2021/03/13 02:35:58;;;;;;;1.60;0.68;;;6.60;85.50;;;;;;5019125;28;20082;-75
2021/03/13 02:38:31;;;;;;;4.93;0.95;;;6.60;85.20;;;;;;5006994;28;20184;-74
2021/03/13 02:41:05;;;;;;;2.13;0.90;;;6.60;85.40;;;;;;4997497;28;20045;-75
2021/03/13 02:43:35;;;;;;;2.35;1.15;;;6.60;85.80;;;;;;5013884;28;20046;-76
2021/03/13 02:46:06;;;;;;;2.15;1.10;;;6.60;85.50;;;;;;4993440;28;20136;-75
2021/03/13 02:48:33;;;;;;;;;;;6.60;85.60;;;;;;4998339;28;20045;-75
2021/03/13 02:51:04;;;;;;;3.38;1.20;;;6.60;85.60;;;;;;4984345;28;19932;-75
2021/03/13 02:53:34;;;;;;;2.08;0.82;;;6.70;85.20;;;;;;4996077;28;20057;-75
2021/03/13 02:56:06;;;;;;;3.60;1.00;;;6.70;85.50;;;;;;4999878;28;20069;-75
2021/03/13 02:58:38;;;;;;;3.77;1.30;;;6.70;84.60;;;;;;4999565;28;20046;-76
2021/03/13 03:01:07;;;;;;;2.03;0.93;;;6.70;84.50;;;;;;4984309;28;20061;-76
2021/03/13 03:03:36;;;;;;;1.67;0.98;;;6.80;84.10;;;;;;5002429;28;20287;-76
2021/03/13 03:06:15;;;;;;;2.72;1.08;;;6.80;84.10;;;;;;4995547;28;20042;-76
2021/03/13 03:08:47;;;;;;;3.35;1.33;;;6.80;84.80;;;;;;5002325;28;20260;-75
2021/03/13 03:11:21;;;;;;;1.90;0.93;;;6.80;85.50;;;;;;5005421;28;20100;-74
2021/03/13 03:13:51;;;;;;;1.77;1.00;;;6.70;85.30;;;;;;5025294;28;20361;-75
2021/03/13 03:16:21;;;;;;;3.80;0.85;;;6.70;85.40;;;;;;4991632;28;20060;-74
2021/03/13 03:18:54;;;;;;;1.45;0.75;;;6.70;85.30;;;;;;4995695;28;20147;-76
2021/03/13 03:21:21;;;;;;;1.20;0.52;;;6.70;85.70;;;;;;5008627;28;20108;-75
2021/03/13 03:23:51;;;;;;;2.05;0.70;;;6.70;85.50;;;;;;4985922;28;20365;-74
2021/03/13 03:26:21;;;;;;;4.63;0.80;;;6.70;85.40;;;;;;5007733;28;20441;-75
2021/03/13 03:28:48;;;;;;;1.13;0.50;;;6.70;85.40;;;;;;4993527;28;20115;-76
2021/03/13 03:31:21;;;;;;;3.83;0.93;;;6.70;85.50;;;;;;4986374;28;20066;-74
2021/03/13 03:33:50;;;;;;;1.60;0.70;;;6.70;85.10;;;;;;5027866;28;20058;-75
2021/03/13 03:36:18;;;;;;;4.65;0.40;;;6.70;85.20;;;;;;4981984;28;20071;-76
2021/03/13 03:38:47;;;;;;;1.63;0.43;;;6.70;85.00;;;;;;5011216;28;20042;-75
2021/03/13 03:41:22;;;;;;;3.15;0.50;;;6.70;84.90;;;;;;5013192;28;20441;-75
2021/03/13 03:43:55;;;;;;;2.03;0.40;;;6.80;85.10;;;;;;4999200;28;20089;-77
2021/03/13 03:46:36;;;;;;;1.60;0.50;;;6.80;85.40;;;;;;5003141;28;20345;-77
2021/03/13 03:49:06;;;;;;;1.42;0.68;;;6.70;85.50;;;;;;5012932;28;20250;-76
2021/03/13 03:51:40;;;;;;;4.00;1.23;;;6.70;85.70;;;;;;5009274;28;20050;-75
2021/03/13 03:54:13;;;;;;;1.42;0.63;;;6.70;85.70;;;;;;5004397;28;20399;-76
2021/03/13 03:56:41;;;;;;;0.75;0.50;;;6.70;85.80;;;;;;4999428;28;20493;-75
2021/03/13 03:59:11;;;;;;;1.73;0.60;;;6.70;85.60;;;;;;5005524;28;20054;-77
2021/03/13 04:01:45;;;;;;;1.45;0.57;;;6.70;85.50;;;;;;5001146;28;20073;-75
2021/03/13 04:04:20;;;;;;;0.75;0.43;;;6.70;86.00;;;;;;5027854;28;20046;-77
2021/03/13 04:06:48;;;;;;;1.73;0.45;;;6.70;85.30;;;;;;5027984;28;20065;-76
2021/03/13 04:09:19;;;;;;;2.40;0.70;;;6.70;86.00;;;;;;5000476;28;20590;-74
2021/03/13 04:11:47;;;;;;;1.88;0.35;;;6.70;86.40;;;;;;5011372;28;20756;-76
2021/03/13 04:14:15;;;;;;;0.80;0.52;;;6.70;86.80;;;;;;5003090;28;20985;-75
2021/03/13 04:16:43;;;;;;;1.38;0.75;;;6.60;87.30;;;;;;5012012;28;20374;-75
2021/03/13 04:19:12;;;;;;;4.03;0.40;;;6.60;87.30;;;;;;4987504;28;20068;-75
2021/03/13 04:21:40;;;;;;;2.10;0.60;;;6.60;87.20;;;;;;5015430;28;20092;-76
2021/03/13 04:24:09;;;;;;;0.40;0.30;;;6.60;88.20;;;;;;5012719;28;20043;-74
2021/03/13 04:26:37;;;;;;;0.65;0.40;;;6.60;87.90;;;;;;5008796;28;20113;-76
2021/03/13 04:29:05;;;;;;;1.63;0.60;;;6.60;88.00;;;;;;4987596;28;20058;-77
2021/03/13 04:31:33;;;;;;;4.20;0.82;;;6.60;87.90;;;;;;5013425;28;20057;-75
2021/03/13 04:34:02;;;;;;;1.23;0.52;;;6.60;88.30;;;;;;5002974;28;20041;-77
2021/03/13 04:36:32;;;;;;;0.93;0.40;;;6.60;88.40;;;;;;5013171;28;20061;-74
2021/03/13 04:39:02;;;;;;;0.98;0.50;;;6.70;87.80;;;;;;5027350;28;20364;-76
2021/03/13 04:41:32;;;;;;;1.80;0.60;;;6.60;88.20;;;;;;5011032;28;20105;-76
2021/03/13 04:44:00;;;;;;;2.90;0.60;;;6.60;88.60;;;;;;4994565;28;20169;-76
2021/03/13 04:46:35;;;;;;;1.30;0.50;;;6.60;89.20;;;;;;5011565;28;20050;-76
2021/03/13 04:49:05;;;;;;;;;;;6.60;89.20;;;;;;5003026;28;20054;-77
2021/03/13 04:51:32;;;;;;;2.42;0.35;;;6.60;89.40;;;;;;5009473;28;20000;-75
2021/03/13 04:54:00;;;;;;;0.82;0.57;;;6.50;89.90;;;;;;4990988;28;20262;-77
2021/03/13 04:56:31;;;;;;;1.33;0.60;;;6.50;89.90;;;;;;4998819;28;20053;-76
2021/03/13 04:58:58;;;;;;;0.52;0.47;;;6.50;90.20;;;;;;5005796;28;20295;-75
2021/03/13 05:01:25;;;;;;;0.90;0.52;;;6.50;89.90;;;;;;5006675;28;20057;-76
2021/03/13 05:03:53;;;;;;;0.65;0.43;;;6.50;90.10;;;;;;5010617;28;20058;-77
2021/03/13 05:06:21;;;;;;;1.02;0.50;;;6.50;90.30;;;;;;5008977;28;20376;-75
2021/03/13 05:08:48;;;;;;;1.73;0.90;;;6.50;89.90;;;;;;5011142;28;20297;-76
2021/03/13 05:11:16;;;;;;;0.55;0.43;;;6.60;89.90;;;;;;5009621;28;20424;-76
2021/03/13 05:13:43;;;;;;;3.42;0.43;;;6.60;89.50;;;;;;5006789;28;20121;-77
2021/03/13 05:16:10;;;;;;;0.57;0.30;;;6.70;89.00;;;;;;5002186;28;20142;-76
2021/03/13 05:18:37;;;;;;;1.23;0.32;;;6.70;88.80;;;;;;5004330;28;20066;-75
2021/03/13 05:21:05;;;;;;;0.45;0.30;;;6.70;89.30;;;;;;5001490;28;20069;-77
2021/03/13 05:23:33;;;;;;;0.50;0.30;;;6.70;89.00;;;;;;5009360;28;20046;-77
2021/03/13 05:25:59;;;;;;;0.93;0.20;;;6.70;88.70;;;;;;5002372;28;20403;-76
2021/03/13 05:28:29;;;;;;;1.80;0.30;;;6.70;88.80;;;;;;5010649;28;20082;-78
2021/03/13 05:30:56;;;;;;;1.83;0.20;;;6.70;89.00;;;;;;5008335;28;20404;-78
2021/03/13 05:33:23;;;;;;;0.43;0.20;;;6.70;88.70;;;;;;5024939;28;20080;-76
2021/03/13 05:35:50;;;;;;;0.38;0.10;;;6.70;88.80;;;;;;5006395;28;20626;-76
2021/03/13 05:38:18;;;;;;;1.27;0.30;;;6.70;88.50;;;;;;4994391;28;20050;-76
2021/03/13 05:40:46;;;;;;;0.10;0.10;;;6.80;87.90;;;;;;4978179;28;20038;-77
2021/03/13 05:43:13;;;;;;;1.30;0.20;;;6.90;87.10;;;;;;5002977;28;20280;-77
2021/03/13 05:45:42;;;;;;;0.80;0.35;;;6.90;86.70;;;;;;5011252;28;20062;-78
2021/03/13 05:48:10;;;;;;;2.47;0.50;;;6.90;87.20;;;;;;4981022;28;20330;-76
2021/03/13 05:50:37;;;;;;;1.95;0.22;;;7.00;85.90;;;;;;5000911;28;20046;-77
2021/03/13 05:53:10;;;;;;;2.70;0.32;;;7.00;86.30;;;;;;4993716;28;20214;-76
2021/03/13 05:55:37;;;;;;;0.30;0.17;;;7.10;85.30;;;;;;5009670;28;20056;-78
2021/03/13 05:58:07;;;;;;;1.95;0.30;;;7.10;84.80;;;;;;5009042;28;20113;-77
2021/03/13 06:00:34;;;;;;;0.20;0.20;;;7.20;84.60;;;;;;4981441;28;20061;-78
2021/03/13 06:03:03;;;;;;;1.85;0.38;;;7.20;84.50;;;;;;5000065;28;20667;-75
2021/03/13 06:05:30;;;;;;;0.95;0.30;;;7.20;84.80;;;;;;5014373;28;20058;-75
2021/03/13 06:08:00;;;;;;;2.55;0.40;;;7.30;84.40;;;;;;5016511;28;20073;-77
2021/03/13 06:10:28;;;;;;;3.17;0.38;;;7.30;84.10;;;;;;4980465;28;20062;-76
2021/03/13 06:12:55;;;;;;;3.00;0.90;;;7.40;83.30;;;;;;4998411;28;20117;-76
2021/03/13 06:15:24;;;;;;;1.23;0.47;;;7.50;83.00;;;;;;5004236;28;20133;-76
2021/03/13 06:17:55;;;;;;;1.58;0.38;;;7.40;83.30;;;;;;5002788;28;20050;-76
2021/03/13 06:20:28;;;;;;;2.35;0.35;;;7.40;83.10;;;;;;5011100;28;20060;-77
2021/03/13 06:22:56;;;;;;;0.70;0.25;;;7.50;83.20;;;;;;4998843;28;20050;-76
2021/03/13 06:25:25;;;;;;;2.85;0.40;;;7.50;83.20;;;;;;4978558;28;20045;-76
2021/03/13 06:28:12;;;;;;;0.65;0.35;;;7.50;82.80;;;;;;4998587;28;20073;-78
2021/03/13 06:30:42;;;;;;;1.75;0.45;;;7.60;82.50;;;;;;4997629;28;20149;-77
2021/03/13 06:33:27;;;;;;;4.07;0.50;;;7.70;82.60;;;;;;4998180;28;20088;-76
2021/03/13 06:35:56;;;;;;;2.75;0.80;;;7.70;82.00;;;;;;4998892;28;20050;-76
2021/03/13 06:38:26;;;;;;;2.78;0.57;;;7.70;82.00;;;;;;5003093;28;20045;-76
2021/03/13 06:40:54;;;;;;;0.95;0.47;;;7.70;81.50;;;;;;5001038;28;20391;-75
2021/03/13 06:43:25;;;;;;;1.63;0.70;;;7.70;81.30;;;;;;4997860;28;20065;-75
2021/03/13 06:46:06;;;;;;;2.92;0.60;;;7.80;81.60;;;;;;4969585;28;20125;-75
2021/03/13 06:48:35;;;;;;;3.08;0.70;;;7.70;81.80;;;;;;4998585;28;20050;-77
2021/03/13 06:51:29;;;;;;;1.95;0.60;;;7.80;81.40;;;;;;5003401;28;20286;-76
2021/03/13 06:54:08;;;;;;;1.17;0.52;;;7.80;81.20;;;;;;4981558;28;20341;-77
2021/03/13 06:56:38;;;;;;;1.20;0.52;;;7.80;81.10;;;;;;4990409;28;20111;-77
2021/03/13 06:59:21;;;;;;;0.38;0.25;;;7.80;80.90;;;;;;4976318;28;20057;-76
2021/03/13 07:02:05;;;;;;;3.67;0.70;;;7.90;80.80;;;;;;4993664;28;20038;-75
2021/03/13 07:04:35;;;;;;;1.90;0.45;;;7.90;80.70;;;;;;4991843;28;20357;-76
2021/03/13 07:07:09;;;;;;;1.60;0.47;;;8.00;80.60;;;;;;5008893;28;20046;-76
2021/03/13 07:09:48;;;;;;;2.13;0.52;;;8.00;80.30;;;;;;5010316;28;20057;-76
2021/03/13 07:12:23;;;;;;;1.55;0.55;;;8.00;80.00;;;;;;4995835;28;20322;-78
2021/03/13 07:14:50;;;;;;;2.30;0.75;;;8.10;79.80;;;;;;4986847;28;20054;-75
2021/03/13 07:17:19;;;;;;;2.50;0.43;;;8.10;79.50;;;;;;4990400;28;20054;-75
2021/03/13 07:19:46;;;;;;;1.60;0.43;;;8.20;79.50;;;;;;4973051;28;20064;-76
2021/03/13 07:22:14;;;;;;;0.93;0.47;;;8.10;79.50;;;;;;4996564;28;20117;-75
2021/03/13 07:24:43;;;;;;;0.93;0.47;;;8.20;79.10;;;;;;4999935;28;20054;-77
2021/03/13 07:27:12;;;;;;;2.85;0.40;;;8.20;79.30;;;;;;5008335;28;21256;-75
2021/03/13 07:29:40;;;;;;;2.42;0.57;;;8.20;79.20;;;;;;4990925;28;21269;-76
2021/03/13 07:32:14;;;;;;;2.22;0.25;;;8.20;78.80;;;;;;4992827;28;20347;-77
2021/03/13 07:34:44;;;;;;;2.45;0.60;;;8.20;78.90;;;;;;5008817;28;20054;-76
2021/03/13 07:37:17;;;;;;;1.25;0.82;;;8.20;79.00;;;;;;4996331;28;20349;-77
2021/03/13 07:39:46;;;;;;;1.33;0.30;;;8.30;78.90;;;;;;4997524;28;20050;-76
2021/03/13 07:42:17;;;;;;;1.10;0.40;;;8.30;77.70;;;;;;4997158;28;20058;-76
2021/03/13 07:44:46;;;;;;;3.00;0.40;;;8.30;77.70;;;;;;5000204;28;20665;-78
2021/03/13 07:47:14;;;;;;;3.47;0.30;;;8.40;77.40;;;;;;4998419;28;20054;-76
2021/03/13 07:49:44;;;;;;;0.75;0.13;;;8.40;77.10;;;;;;4996864;28;20065;-76
2021/03/13 07:52:17;;;;;;;2.25;0.43;;;8.40;77.20;;;;;;5000686;28;20042;-75
2021/03/13 07:54:48;;;;;;;0.95;0.70;;;8.40;77.50;;;;;;5017094;28;20461;-76
2021/03/13 07:57:19;;;;;;;3.83;0.30;;;8.40;76.80;;;;;;5001738;28;20655;-76
2021/03/13 07:59:46;;;;;;;;;;;8.50;77.00;;;;;;5003758;28;20082;-76
2021/03/13 08:02:36;;;;;;;1.50;0.40;;;8.50;78.10;;;;;;5000644;28;19984;-75
2021/03/13 08:05:07;;;;;;;1.65;0.38;;;8.40;78.70;;;;;;4998356;28;20057;-76
2021/03/13 08:07:55;;;;;;;0.55;0.22;;;8.30;78.50;;;;;;4997302;28;20386;-76
2021/03/13 08:10:46;;;;;;;0.30;0.20;;;8.30;79.40;;;;;;4976058;28;20053;-75
2021/03/13 08:13:35;;;;;;;0.75;0.47;;;8.30;78.50;;;;;;5015363;28;20415;-76
2021/03/13 08:16:06;;;;;;;1.33;0.40;;;8.20;79.10;;;;;;5010939;28;20160;-76
2021/03/13 08:18:44;;;;;;;0.73;0.30;;;8.20;79.10;;;;;;5005830;28;20053;-78
2021/03/13 08:21:40;;;;;;;0.98;0.32;;;8.30;78.50;;;;;;5003639;28;20301;-76
2021/03/13 08:24:08;;;;;;;2.53;0.45;;;8.30;78.30;;;;;;4978114;28;20054;-77
2021/03/13 08:27:09;;;;;;;1.10;0.22;;;8.40;78.80;;;;;;4993033;28;20063;-75
2021/03/13 08:30:02;;;;;;;2.20;0.35;;;8.40;78.80;;;;;;4990839;28;20941;-75
2021/03/13 08:32:58;;;;;;;3.72;1.20;;;8.40;78.50;;;;;;4990216;28;20345;-77
2021/03/13 08:35:49;;;;;;;4.28;0.90;;;8.30;78.80;;;;;;4971227;28;20350;-76
2021/03/13 08:38:34;;;;;;;4.80;0.60;;;8.30;78.70;;;;;;4992073;28;20038;-76
2021/03/13 08:41:02;;;;;;;0.70;0.30;;;8.30;79.70;;;;;;4959494;28;20042;-76
2021/03/13 08:43:44;;;;;;;0.60;0.43;;;8.30;79.40;;;;;;4998028;28;20049;-76
2021/03/13 08:46:47;;;;;;;1.00;0.40;;;8.20;80.10;;;;;;4998064;28;20105;-77
2021/03/13 08:49:42;;;;;;;0.45;0.28;;;8.10;81.20;;;;;;4987078;28;20065;-76
2021/03/13 08:52:30;;;;;;;2.65;0.70;;;8.10;81.40;;;;;;4992274;28;20054;-76
2021/03/13 08:54:58;;;;;;;0.50;0.20;;;8.10;80.50;;;;;;4967979;28;20062;-76
2021/03/13 08:57:44;;;;;;;1.85;0.52;;;8.10;80.70;;;;;;4992255;28;20066;-77
2021/03/13 09:00:20;;;;;;;2.40;0.70;;;8.20;79.40;;;;;;4989149;28;20097;-76
2021/03/13 09:02:50;;;;;;;1.00;0.52;;;8.30;79.30;;;;;;5010844;28;20053;-78
2021/03/13 09:05:22;;;;;;;0.35;0.20;;;8.30;78.70;;;;;;4993986;28;20801;-77
2021/03/13 09:07:51;;;;;;;2.85;0.95;;;8.40;79.30;;;;;;4995062;28;20062;-77
2021/03/13 09:10:20;;;;;;;1.75;0.40;;;8.40;79.40;;;;;;4982843;28;20062;-78
2021/03/13 09:12:48;;;;;;;4.65;0.50;;;8.40;78.30;;;;;;4996939;28;20107;-80
2021/03/13 09:15:17;;;;;;;4.05;0.82;;;8.40;79.40;;;;;;5002314;28;20780;-78
2021/03/13 09:17:45;;;;;;;0.80;0.30;;;8.40;79.40;;;;;;4994755;28;20065;-77
2021/03/13 09:20:15;;;;;;;2.90;0.40;;;8.30;81.80;;;;;;4996536;28;20069;-78
2021/03/13 09:22:43;;;;;;;3.08;0.50;;;8.30;80.80;;;;;;4997900;28;20057;-76
2021/03/13 09:25:13;;;;;;;2.40;1.17;;;8.20;81.60;;;;;;5000007;28;20431;-76
2021/03/13 09:27:42;;;;;;;1.45;0.50;;;8.00;83.30;;;;;;4990736;28;20050;-75
2021/03/13 09:30:12;;;;;;;2.22;0.52;;;8.00;83.40;;;;;;5000509;28;20049;-76
2021/03/13 09:32:44;;;;;;;5.85;0.47;;;7.90;84.30;;;;;;5012772;28;20076;-77
2021/03/13 09:35:13;;;;;;;0.82;0.40;;;7.90;84.10;;;;;;4995099;28;20050;-77
2021/03/13 09:37:41;;;;;;;1.45;0.40;;;7.80;85.80;;;;;;4976188;28;20058;-77
2021/03/13 09:40:11;;;;;;;5.13;0.47;;;7.70;86.90;;;;;;4998716;28;20046;-78
2021/03/13 09:42:40;;;;;;;2.80;1.27;;;7.70;86.30;;;;;;4996832;28;20253;-76
2021/03/13 09:45:09;;;;;;;1.33;0.30;;;7.80;85.00;;;;;;4994399;28;20061;-75
2021/03/13 09:47:38;;;;;;;2.50;0.40;;;7.80;85.10;;;;;;4998354;28;20053;-75
2021/03/13 09:50:09;;;;;;;1.08;0.40;;;7.90;85.40;;;;;;5012754;28;20061;-77
2021/03/13 09:52:38;;;;;;;1.10;0.20;;;7.80;85.10;;;;;;4994111;28;20353;-78
2021/03/13 09:55:09;;;;;;;1.65;0.60;;;7.70;86.40;;;;;;4998428;28;20354;-76
2021/03/13 09:57:38;;;;;;;1.65;0.98;;;7.70;85.60;;;;;;5001912;28;20089;-76
2021/03/13 10:00:09;;;;;;;0.88;0.30;;;7.80;86.20;;;;;;4993499;28;20266;-78
2021/03/13 10:02:38;;;;;;;3.28;0.30;;;7.80;85.30;;;;;;4993366;28;20062;-76
2021/03/13 10:05:07;;;;;;;2.47;0.30;;;7.80;86.00;;;;;;4993513;28;20058;-77
2021/03/13 10:07:39;;;;;;;1.35;0.52;;;7.90;84.60;;;;;;5010591;28;20105;-76
2021/03/13 10:10:07;;;;;;;0.22;0.20;;;7.90;85.10;;;;;;4988068;28;20054;-75
2021/03/13 10:12:36;;;;;;;2.05;0.20;;;7.90;84.40;;;;;;4992646;28;20110;-77
2021/03/13 10:15:16;;;;;;;0.75;0.30;;;8.00;83.90;;;;;;4991057;28;20054;-76
2021/03/13 10:18:00;;;;;;;1.17;0.35;;;8.10;83.20;;;;;;4992916;28;22845;-77
2021/03/13 10:20:35;;;;;;;0.40;0.20;;;8.20;82.40;;;;;;4997232;28;20416;-77
2021/03/13 10:23:10;;;;;;;4.28;0.60;;;8.20;82.60;;;;;;4996494;28;20046;-77
2021/03/13 10:25:39;;;;;;;2.50;0.35;;;8.20;82.10;;;;;;4997782;28;20073;-77
2021/03/13 10:28:10;;;;;;;2.53;0.50;;;8.30;82.20;;;;;;4993301;28;20357;-76
2021/03/13 10:30:43;;;;;;;0.50;0.40;;;8.30;82.30;;;;;;4995701;28;20058;-76
2021/03/13 10:33:10;;;;;;;1.27;0.43;;;8.40;82.40;;;;;;4993476;28;20058;-77
2021/03/13 10:35:39;;;;;;;0.85;0.20;;;8.40;81.30;;;;;;5007783;28;20066;-77
2021/03/13 10:38:18;;;;;;;2.05;0.55;;;8.40;81.70;;;;;;4998559;28;20436;-77
2021/03/13 10:40:47;;;;;;;1.48;0.25;;;8.40;81.40;;;;;;4987594;28;20077;-77
2021/03/13 10:43:17;;;;;;;2.05;0.30;;;8.40;81.60;;;;;;4991357;28;20096;-76
2021/03/13 10:45:47;;;;;;;2.80;0.32;;;8.40;81.10;;;;;;5015624;28;20053;-76
2021/03/13 10:48:14;;;;;;;9.00;0.80;;;8.40;81.60;;;;;;5001047;28;20057;-78
2021/03/13 10:50:43;;;;;;;2.67;0.47;;;8.40;81.90;;;;;;4995258;28;21137;-76
2021/03/13 10:53:28;;;;;;;0.95;0.25;;;8.30;81.90;;;;;;4991234;28;20047;-77
2021/03/13 10:55:56;;;;;;;3.40;0.40;;;8.30;82.40;;;;;;4991125;28;20068;-76
2021/03/13 10:58:24;;;;;;;2.35;0.30;;;8.40;81.60;;;;;;4977342;28;20114;-76
2021/03/13 11:00:53;;;;;;;6.60;0.95;;;8.40;81.40;;;;;;4995574;28;20085;-78
2021/03/13 11:03:21;;;;;;;1.95;0.35;;;8.50;81.60;;;;;;5007590;28;20050;-77
2021/03/13 11:05:51;;;;;;;0.57;0.10;;;8.50;81.40;;;;;;5017344;28;20054;-77
2021/03/13 11:08:19;;;;;;;3.00;0.20;;;8.50;82.30;;;;;;4998023;28;20154;-77
2021/03/13 11:10:47;;;;;;;3.00;0.55;;;8.30;83.30;;;;;;5003172;28;20232;-78
2021/03/13 11:13:14;;;;;;;1.42;0.30;;;8.10;84.80;;;;;;5004475;28;20042;-77
2021/03/13 11:15:41;;;;;;;2.88;0.40;;;8.00;87.00;;;;;;5007191;28;20324;-78
2021/03/13 11:18:10;;;;;;;0.52;0.43;;;7.80;88.10;;;;;;5005390;28;20148;-79
2021/03/13 11:20:38;;;;;;;4.30;0.60;;;7.60;90.10;;;;;;5005300;28;20114;-78
2021/03/13 11:23:06;;;;;;;0.50;0.20;;;7.30;92.90;;;;;;5023906;28;20112;-78
2021/03/13 11:25:34;;;;;;;1.65;0.30;;;7.10;93.90;;;;;;5018902;28;20088;-79
2021/03/13 11:28:07;;;;;;;1.75;0.30;;;6.90;94.40;;;;;;5017951;28;20054;-78
2021/03/13 11:30:35;;;;;;;2.00;0.32;;;6.80;96.10;;;;;;4984848;28;20049;-78
2021/03/13 11:33:04;;;;;;;0.98;0.35;;;6.70;96.00;;;;;;5008686;28;20038;-78
2021/03/13 11:35:32;;;;;;;1.20;0.30;;;6.70;97.00;;;;;;4990790;28;20057;-77
2021/03/13 11:38:01;;;;;;;0.63;0.10;;;6.70;97.50;;;;;;5009270;28;20050;-78
2021/03/13 11:40:29;;;;;;;0.25;0.15;;;6.70;97.60;;;;;;5006116;28;20061;-79
2021/03/13 11:43:01;;;;;;;2.10;0.40;;;6.70;97.80;;;;;;5006678;28;20125;-79
2021/03/13 11:45:29;;;;;;;2.30;0.45;;;6.70;97.50;;;;;;4986057;28;20042;-80
2021/03/13 11:47:58;;;;;;;0.30;0.08;;;6.60;97.80;;;;;;5003302;28;20057;-82
2021/03/13 11:50:28;;;;;;;0.30;0.20;;;6.60;97.60;;;;;;5006793;28;20153;-79
2021/03/13 11:52:58;;;;;;;0.38;0.25;;;6.50;97.60;;;;;;4997924;28;20070;-81
2021/03/13 11:55:27;;;;;;;0.17;0.17;;;6.40;97.30;;;;;;4985762;28;20054;-81
2021/03/13 11:57:57;;;;;;;0.65;0.30;;;6.20;97.10;;;;;;5007643;28;20073;-82
2021/03/13 12:00:27;;;;;;;3.63;0.55;;;6.20;97.20;;;;;;5005566;28;20381;-79
2021/03/13 12:02:55;;;;;;;;;;;6.10;97.50;;;;;;4978855;28;20050;-78
2021/03/13 12:05:25;;;;;;;1.90;0.40;;;6.00;97.50;;;;;;5018273;28;19925;-78
2021/03/13 12:07:55;;;;;;;1.30;0.30;;;6.00;97.90;;;;;;5019286;28;20277;-80
2021/03/13 12:10:25;;;;;;;0.15;0.10;;;6.00;97.90;;;;;;5004986;28;20054;-80
2021/03/13 12:12:52;;;;;;;1.10;0.25;;;5.90;97.90;;;;;;5022969;28;20408;-79
2021/03/13 12:15:22;;;;;;;0.70;0.30;;;5.80;97.50;;;;;;5007398;28;20057;-80
2021/03/13 12:17:50;;;;;;;0.45;0.35;;;5.80;98.00;;;;;;5018258;28;20042;-78
2021/03/13 12:20:18;;;;;;;0.10;0.10;;;5.70;97.90;;;;;;5004182;28;20047;-79
2021/03/13 12:22:46;;;;;;;0.30;0.10;;;5.70;97.60;;;;;;5012024;28;20361;-77
2021/03/13 12:25:14;;;;;;;0.10;0.10;;;5.70;97.60;;;;;;5004128;28;20046;-81
2021/03/13 12:27:50;;;;;;;0.90;0.22;;;5.70;97.70;;;;;;5009638;28;20108;-79
2021/03/13 12:30:19;;;;;;;0.10;0.10;;;5.70;97.60;;;;;;5008104;28;20053;-80
2021/03/13 12:32:47;;;;;;;0.93;0.35;;;5.70;97.40;;;;;;4989792;28;20042;-80
2021/03/13 12:35:16;;;;;;;0.85;0.20;;;5.60;96.90;;;;;;5007630;28;20092;-79
2021/03/13 12:37:44;;;;;;;1.40;0.28;;;5.50;96.80;;;;;;4987198;28;20342;-77
2021/03/13 12:40:14;;;;;;;1.95;0.20;;;5.60;97.10;;;;;;5007615;28;20090;-80
2021/03/13 12:42:43;;;;;;;1.02;0.10;;;5.60;96.40;;;;;;5004619;28;20108;-80
2021/03/13 12:45:12;;;;;;;0.73;0.40;;;5.70;96.40;;;;;;4988099;28;20054;-77
2021/03/13 12:47:39;;;;;;;1.20;0.38;;;5.70;96.50;;;;;;5004575;28;20046;-78
2021/03/13 12:50:09;;;;;;;2.58;0.73;;;5.80;96.20;;;;;;5005546;28;20058;-80
2021/03/13 12:52:36;;;;;;;2.80;0.80;;;5.90;94.90;;;;;;4997476;28;20057;-78
2021/03/13 12:55:04;;;;;;;2.58;0.60;;;5.90;94.90;;;;;;5009466;28;20058;-80
2021/03/13 12:57:31;;;;;;;0.55;0.30;;;5.80;93.70;;;;;;4990895;28;20100;-78
2021/03/13 12:59:59;;;;;;;2.20;0.20;;;5.80;94.90;;;;;;4998271;28;20258;-80
2021/03/13 13:02:27;;;;;;;0.65;0.25;;;5.80;93.70;;;;;;5002746;28;20054;-80
2021/03/13 13:04:56;;;;;;;1.65;0.22;;;5.80;93.60;;;;;;5002180;28;20367;-80
2021/03/13 13:07:23;;;;;;;0.90;0.40;;;5.90;94.90;;;;;;5004956;28;20228;-81
2021/03/13 13:09:51;;;;;;;2.05;0.47;;;6.00;94.20;;;;;;4985999;28;20150;-78
2021/03/13 13:12:18;;;;;;;0.40;0.10;;;6.10;92.30;;;;;;4985976;28;20045;-79
2021/03/13 13:14:45;;;;;;;0.10;0.10;;;6.40;91.10;;;;;;5010652;28;20096;-79
2021/03/13 13:17:14;;;;;;;0.55;0.30;;;6.70;92.50;;;;;;5025274;28;20073;-81
2021/03/13 13:19:41;;;;;;;0.70;0.30;;;7.10;88.30;;;;;;5010838;28;20349;-79